createdAt,value
2017-12-13T00:00:04.825Z,100796.50
2017-12-13T00:02:33.148Z,100798.18
2017-12-13T00:05:01.504Z,100804.65
2017-12-13T00:07:31.336Z,100803.77
2017-12-13T00:09:59.704Z,100806.47
2017-12-13T00:12:28.036Z,100802.70
2017-12-13T00:14:56.392Z,100799.89
2017-12-13T00:17:25.525Z,100810.80
2017-12-13T00:19:53.888Z,100808.20
2017-12-13T00:22:33.036Z,100810.03
2017-12-13T00:25:02.504Z,100805.73
2017-12-13T00:27:31.645Z,100808.28
2017-12-13T00:29:59.968Z,100809.42
2017-12-13T00:32:29.064Z,100812.84
2017-12-13T00:34:57.828Z,100804.99
2017-12-13T00:37:26.164Z,100810.80
2017-12-13T00:39:54.540Z,100812.64
2017-12-13T00:42:22.868Z,100818.28
2017-12-13T00:44:51.636Z,100822.25
2017-12-13T00:47:19.976Z,100820.09
2017-12-13T00:49:48.711Z,100814.84
2017-12-13T00:52:17.099Z,100816.58
2017-12-13T00:54:45.496Z,100803.59
2017-12-13T00:57:14.216Z,100801.86
2017-12-13T00:59:42.584Z,100803.52
2017-12-13T01:02:10.961Z,100809.66
2017-12-13T01:04:40.457Z,100811.42
2017-12-13T01:07:08.812Z,100813.05
2017-12-13T01:09:37.162Z,100818.20
2017-12-13T01:12:05.514Z,100816.36
2017-12-13T01:14:33.980Z,100816.77
2017-12-13T01:17:02.359Z,100822.13
2017-12-13T01:19:30.700Z,100820.33
2017-12-13T01:21:59.443Z,100817.65
2017-12-13T01:24:27.812Z,100824.16
2017-12-13T01:26:56.524Z,100822.80
2017-12-13T01:29:24.880Z,100812.94
2017-12-13T01:31:53.287Z,100827.95
2017-12-13T01:34:21.628Z,100832.36
2017-12-13T01:36:49.960Z,100836.09
2017-12-13T01:39:18.324Z,100836.20
2017-12-13T01:41:46.651Z,100840.84
2017-12-13T01:44:15.008Z,100845.90
2017-12-13T01:46:44.111Z,100844.44
2017-12-13T01:49:12.463Z,100842.48
2017-12-13T01:51:40.852Z,100853.59
2017-12-13T01:54:09.572Z,100845.27
2017-12-13T01:56:37.919Z,100846.36
2017-12-13T01:59:06.672Z,100851.09
2017-12-13T02:01:35.032Z,100853.16
2017-12-13T02:04:04.520Z,100853.56
2017-12-13T02:06:34.023Z,100858.34
2017-12-13T02:09:02.391Z,100851.82
2017-12-13T02:11:31.130Z,100852.23
2017-12-13T02:13:59.479Z,100855.94
2017-12-13T02:16:27.836Z,100853.91
2017-12-13T02:18:56.551Z,100857.20
2017-12-13T02:21:24.911Z,100861.80
2017-12-13T02:23:53.344Z,100873.08
2017-12-13T02:26:21.672Z,100870.84
2017-12-13T02:28:50.780Z,100873.08
2017-12-13T02:31:19.908Z,100871.77
2017-12-13T02:33:48.247Z,100871.27
2017-12-13T02:36:16.631Z,100870.48
2017-12-13T02:38:44.947Z,100871.10
2017-12-13T02:41:13.276Z,100868.08
2017-12-13T02:43:41.678Z,100869.05
2017-12-13T02:46:10.004Z,100870.73
2017-12-13T02:48:38.341Z,100871.45
2017-12-13T02:51:06.707Z,100871.70
2017-12-13T02:53:35.059Z,100873.63
2017-12-13T02:56:03.407Z,100872.70
2017-12-13T02:58:32.541Z,100876.47
2017-12-13T03:01:00.907Z,100870.02
2017-12-13T03:03:29.239Z,100860.67
2017-12-13T03:05:57.612Z,100860.14
2017-12-13T03:08:25.983Z,100864.28
2017-12-13T03:10:54.699Z,100859.36
2017-12-13T03:13:23.838Z,100859.60
2017-12-13T03:15:52.558Z,100858.58
2017-12-13T03:18:20.919Z,100867.26
2017-12-13T03:20:49.243Z,100865.52
2017-12-13T03:23:17.611Z,100871.13
2017-12-13T03:25:46.698Z,100868.56
2017-12-13T03:28:15.823Z,100871.65
2017-12-13T03:30:45.548Z,100873.39
2017-12-13T03:33:13.863Z,100879.41
2017-12-13T03:35:42.190Z,100875.86
2017-12-13T03:38:10.574Z,100877.16
2017-12-13T03:40:38.914Z,100884.27
2017-12-13T03:43:08.025Z,100878.27
2017-12-13T03:45:37.111Z,100884.00
2017-12-13T03:48:06.831Z,100885.89
2017-12-13T03:50:35.935Z,100883.56
2017-12-13T03:53:05.054Z,100887.42
2017-12-13T03:55:33.419Z,100884.69
2017-12-13T03:58:01.764Z,100889.86
2017-12-13T04:00:30.870Z,100885.92
2017-12-13T04:02:59.950Z,100888.98
2017-12-13T04:05:29.075Z,100888.95
2017-12-13T04:07:57.438Z,100893.48
2017-12-13T04:10:26.558Z,100888.55
2017-12-13T04:12:54.898Z,100884.50
2017-12-13T04:15:23.655Z,100887.91
2017-12-13T04:17:52.375Z,100888.77
2017-12-13T04:20:21.464Z,100888.37
2017-12-13T04:22:50.583Z,100893.09
2017-12-13T04:25:19.331Z,100896.12
2017-12-13T04:27:47.686Z,100891.92
2017-12-13T04:30:16.399Z,100895.08
2017-12-13T04:32:46.270Z,100899.70
2017-12-13T04:35:14.627Z,100902.13
2017-12-13T04:37:42.954Z,100900.11
2017-12-13T04:40:11.314Z,100896.73
2017-12-13T04:42:39.634Z,100898.28
2017-12-13T04:45:08.014Z,100902.38
2017-12-13T04:47:37.106Z,100896.16
2017-12-13T04:50:06.222Z,100893.36
2017-12-13T04:52:34.950Z,100890.63
2017-12-13T04:55:03.318Z,100898.34
2017-12-13T04:57:32.020Z,100893.70
2017-12-13T05:00:00.356Z,100889.33
2017-12-13T05:02:28.718Z,100890.25
2017-12-13T05:04:58.550Z,100889.81
2017-12-13T05:07:26.891Z,100884.51
2017-12-13T05:09:55.279Z,100877.91
2017-12-13T05:12:23.998Z,100877.79
2017-12-13T05:14:53.146Z,100878.63
2017-12-13T05:17:21.470Z,100881.33
2017-12-13T05:19:49.826Z,100889.25
2017-12-13T05:22:18.178Z,100886.22
2017-12-13T05:24:47.310Z,100889.27
2017-12-13T05:27:15.671Z,100887.95
2017-12-13T05:29:44.434Z,100893.83
2017-12-13T05:32:13.530Z,100896.43
2017-12-13T05:34:41.910Z,100889.04
2017-12-13T05:37:10.254Z,100881.02
2017-12-13T05:39:39.346Z,100883.20
2017-12-13T05:42:07.714Z,100882.05
2017-12-13T05:44:36.066Z,100886.83
2017-12-13T05:47:04.822Z,100882.06
2017-12-13T05:49:33.566Z,100881.19
2017-12-13T05:52:01.926Z,100881.28
2017-12-13T05:54:30.254Z,100881.91
2017-12-13T05:56:58.648Z,100886.18
2017-12-13T05:59:27.009Z,100882.90
2017-12-13T06:01:56.481Z,100878.53
2017-12-13T06:04:26.214Z,100875.02
2017-12-13T06:06:55.331Z,100873.69
2017-12-13T06:09:23.702Z,100878.53
2017-12-13T06:11:52.495Z,100876.59
2017-12-13T06:14:21.654Z,100877.64
2017-12-13T06:16:51.581Z,100874.19
2017-12-13T06:19:20.389Z,100875.91
2017-12-13T06:21:48.765Z,100885.10
2017-12-13T06:24:18.230Z,100882.16
2017-12-13T06:26:46.573Z,100881.31
2017-12-13T06:29:15.717Z,100876.43
2017-12-13T06:31:44.038Z,100877.91
2017-12-13T06:34:13.167Z,100883.38
2017-12-13T06:36:41.933Z,100876.88
2017-12-13T06:39:11.046Z,100873.94
2017-12-13T06:41:40.942Z,100865.31
2017-12-13T06:44:09.665Z,100867.56
2017-12-13T06:46:38.397Z,100866.12
2017-12-13T06:49:06.889Z,100865.02
2017-12-13T06:51:35.485Z,100859.04
2017-12-13T06:54:03.849Z,100864.16
2017-12-13T06:56:32.977Z,100861.98
2017-12-13T06:59:01.333Z,100851.07
2017-12-13T07:01:30.461Z,100857.55
2017-12-13T07:03:58.821Z,100851.13
2017-12-13T07:06:27.553Z,100859.35
2017-12-13T07:08:56.308Z,100860.31
2017-12-13T07:11:25.073Z,100861.50
2017-12-13T07:13:54.253Z,100857.21
2017-12-13T07:16:23.779Z,100852.51
2017-12-13T07:18:52.139Z,100859.12
2017-12-13T07:21:21.246Z,100850.30
2017-12-13T07:23:52.816Z,100846.56
2017-12-13T07:26:21.729Z,100840.06
2017-12-13T07:28:50.078Z,100848.73
2017-12-13T07:31:19.634Z,100846.51
2017-12-13T07:33:49.241Z,100849.95
2017-12-13T07:36:19.361Z,100843.53
2017-12-13T07:38:47.717Z,100847.44
2017-12-13T07:41:16.048Z,100846.14
2017-12-13T07:43:45.185Z,100836.72
2017-12-13T07:46:13.913Z,100840.63
2017-12-13T07:48:42.657Z,100842.84
2017-12-13T07:51:12.440Z,100855.29
2017-12-13T07:53:40.788Z,100847.31
2017-12-13T07:56:09.160Z,100840.47
2017-12-13T07:58:38.264Z,100832.46
2017-12-13T08:01:06.637Z,100832.14
2017-12-13T08:03:36.316Z,100833.06
2017-12-13T08:06:05.524Z,100830.28
2017-12-13T08:08:34.345Z,100825.91
2017-12-13T08:11:03.349Z,100822.56
2017-12-13T08:13:32.481Z,100821.36
2017-12-13T08:16:00.908Z,100820.11
2017-12-13T08:18:29.390Z,100819.74
2017-12-13T08:20:57.721Z,100819.88
2017-12-13T08:23:27.186Z,100816.87
2017-12-13T08:25:56.728Z,100811.73
2017-12-13T08:28:25.460Z,100815.84
2017-12-13T08:30:55.216Z,100815.03
2017-12-13T08:33:23.557Z,100808.11
2017-12-13T08:35:52.700Z,100804.75
2017-12-13T08:38:21.448Z,100807.02
2017-12-13T08:40:50.556Z,100803.53
2017-12-13T08:43:18.974Z,100805.39
2017-12-13T08:45:47.449Z,100800.34
2017-12-13T08:48:16.209Z,100797.52
2017-12-13T08:50:44.533Z,100789.81
2017-12-13T08:53:12.848Z,100790.66
2017-12-13T08:55:41.984Z,100792.53
2017-12-13T08:58:11.144Z,100782.13
2017-12-13T09:00:39.476Z,100777.34
2017-12-13T09:03:07.847Z,100783.97
2017-12-13T09:05:36.628Z,100770.16
2017-12-13T09:08:04.968Z,100770.20
2017-12-13T09:10:33.356Z,100766.32
2017-12-13T09:13:03.205Z,100775.55
2017-12-13T09:15:31.949Z,100767.83
2017-12-13T09:18:00.307Z,100765.64
2017-12-13T09:20:29.401Z,100759.16
2017-12-13T09:22:59.293Z,100756.19
2017-12-13T09:25:27.632Z,100749.28
2017-12-13T09:27:57.317Z,100749.77
2017-12-13T09:30:25.680Z,100741.63
2017-12-13T09:32:55.371Z,100743.47
2017-12-13T09:35:23.782Z,100731.25
2017-12-13T09:37:52.125Z,100731.00
2017-12-13T09:40:20.876Z,100728.06
2017-12-13T09:42:49.620Z,100716.31
2017-12-13T09:45:17.956Z,100715.88
2017-12-13T09:47:47.103Z,100706.27
2017-12-13T09:50:15.420Z,100705.48
2017-12-13T09:52:43.753Z,100692.50
2017-12-13T09:55:12.501Z,100686.01
2017-12-13T09:57:41.208Z,100684.28
2017-12-13T10:00:10.748Z,100680.00
2017-12-13T10:02:39.065Z,100675.20
2017-12-13T10:05:07.419Z,100676.17
2017-12-13T10:07:35.752Z,100670.14
2017-12-13T10:10:04.073Z,100661.46
2017-12-13T10:12:33.797Z,100658.87
2017-12-13T10:15:03.498Z,100646.27
2017-12-13T10:17:33.228Z,100646.75
2017-12-13T10:20:02.700Z,100632.83
2017-12-13T10:22:31.591Z,100635.05
2017-12-13T10:24:59.952Z,100634.21
2017-12-13T10:27:29.412Z,100633.41
2017-12-13T10:29:57.764Z,100625.59
2017-12-13T10:32:26.132Z,100621.22
2017-12-13T10:34:54.472Z,100621.22
2017-12-13T10:37:23.608Z,100616.86
2017-12-13T10:39:51.948Z,100612.91
2017-12-13T10:42:21.076Z,100613.83
2017-12-13T10:44:49.402Z,100615.14
2017-12-13T10:47:18.520Z,100611.22
2017-12-13T10:49:47.631Z,100610.37
2017-12-13T10:52:15.957Z,100600.34
2017-12-13T10:54:45.096Z,100603.88
2017-12-13T10:57:13.588Z,100590.31
2017-12-13T10:59:41.908Z,100582.00
2017-12-13T11:02:10.284Z,100576.80
2017-12-13T11:04:38.755Z,100567.62
2017-12-13T11:07:07.099Z,100556.28
2017-12-13T11:09:35.497Z,100548.84
2017-12-13T11:12:03.936Z,100541.41
2017-12-13T11:14:33.073Z,100533.98
2017-12-13T11:17:02.936Z,100520.44
2017-12-13T11:19:31.676Z,100520.85
2017-12-13T11:22:00.032Z,100515.17
2017-12-13T11:24:28.400Z,100505.98
2017-12-13T11:26:56.757Z,100500.31
2017-12-13T11:29:25.856Z,100501.59
2017-12-13T11:31:54.203Z,100486.72
2017-12-13T11:34:22.524Z,100485.41
2017-12-13T11:36:51.287Z,100481.48
2017-12-13T11:39:19.660Z,100473.63
2017-12-13T11:41:49.497Z,100460.51
2017-12-13T11:44:18.272Z,100454.84
2017-12-13T11:46:47.384Z,100450.48
2017-12-13T11:49:16.864Z,100447.42
2017-12-13T11:51:45.947Z,100430.80
2017-12-13T11:54:17.037Z,100416.78
2017-12-13T11:59:33.716Z,100408.45
2017-12-13T12:02:07.275Z,100396.21
2017-12-13T12:04:41.980Z,100387.00
2017-12-13T12:07:17.530Z,100377.41
2017-12-13T12:09:46.736Z,100372.16
2017-12-13T12:14:49.924Z,100356.05
2017-12-13T12:17:25.999Z,100341.66
2017-12-13T12:20:00.179Z,100339.47
2017-12-13T12:22:46.434Z,100336.00
2017-12-13T12:25:16.039Z,100329.45
2017-12-13T12:27:45.183Z,100324.66
2017-12-13T12:30:15.196Z,100311.55
2017-12-13T12:32:45.452Z,100320.30
2017-12-13T12:35:15.071Z,100311.15
2017-12-13T12:37:45.120Z,100308.09
2017-12-13T12:40:14.906Z,100302.84
2017-12-13T12:42:44.195Z,100296.29
2017-12-13T12:45:14.063Z,100296.74
2017-12-13T12:47:42.911Z,100290.63
2017-12-13T12:50:12.587Z,100285.36
2017-12-13T12:52:43.058Z,100285.39
2017-12-13T12:55:13.402Z,100283.20
2017-12-13T12:57:41.715Z,100271.40
2017-12-13T13:00:11.014Z,100270.12
2017-12-13T13:02:39.451Z,100270.11
2017-12-13T13:05:08.171Z,100267.07
2017-12-13T13:07:36.636Z,100262.70
2017-12-13T13:10:07.678Z,100258.77
2017-12-13T13:12:38.004Z,100248.73
2017-12-13T13:15:07.518Z,100248.75
2017-12-13T13:17:36.666Z,100243.07
2017-12-13T13:20:06.562Z,100236.53
2017-12-13T13:22:37.201Z,100232.56
2017-12-13T13:25:07.280Z,100224.30
2017-12-13T13:27:38.242Z,100218.62
2017-12-13T13:30:07.383Z,100212.51
2017-12-13T13:32:36.166Z,100200.73
2017-12-13T13:35:04.566Z,100195.08
2017-12-13T13:37:32.883Z,100179.32
2017-12-13T13:40:02.011Z,100185.44
2017-12-13T13:42:30.366Z,100186.35
2017-12-13T13:44:59.836Z,100170.63
2017-12-13T13:47:28.194Z,100164.55
2017-12-13T13:49:57.320Z,100163.19
2017-12-13T13:52:26.382Z,100153.17
2017-12-13T13:54:56.149Z,100156.69
2017-12-13T13:57:25.859Z,100143.59
2017-12-13T13:59:54.230Z,100141.44
2017-12-13T14:02:25.146Z,100133.55
2017-12-13T14:04:54.330Z,100135.34
2017-12-13T14:07:23.757Z,100125.74
2017-12-13T14:09:52.510Z,100126.61
2017-12-13T14:12:21.870Z,100127.49
2017-12-13T14:14:50.226Z,100128.36
2017-12-13T14:17:19.354Z,100116.59
2017-12-13T14:19:47.693Z,100120.52
2017-12-13T14:22:17.770Z,100117.48
2017-12-13T14:24:46.878Z,100122.72
2017-12-13T14:27:15.594Z,100116.61
2017-12-13T14:29:43.994Z,100120.53
2017-12-13T14:32:12.338Z,100116.14
2017-12-13T14:34:40.751Z,100117.91
2017-12-13T14:37:09.089Z,100109.17
2017-12-13T14:39:38.548Z,100094.80
2017-12-13T14:42:07.134Z,100095.22
2017-12-13T14:44:35.598Z,100082.16
2017-12-13T14:47:05.334Z,100075.17
2017-12-13T14:49:34.569Z,100061.69
2017-12-13T14:52:04.572Z,100063.86
2017-12-13T14:54:34.410Z,100048.14
2017-12-13T14:57:02.770Z,100044.63
2017-12-13T14:59:31.112Z,100026.80
2017-12-13T15:01:59.873Z,100034.63
2017-12-13T15:04:28.198Z,100023.75
2017-12-13T15:06:56.538Z,100025.95
2017-12-13T15:09:24.921Z,100022.47
2017-12-13T15:11:54.062Z,100011.56
2017-12-13T15:14:24.064Z,100007.23
2017-12-13T15:16:52.527Z,100001.12
2017-12-13T15:19:22.034Z,99994.58
2017-12-13T15:21:50.457Z,99989.79
2017-12-13T15:24:18.983Z,99980.65
2017-12-13T15:26:47.310Z,99976.30
2017-12-13T15:29:15.665Z,99968.44
2017-12-13T15:31:45.489Z,99965.41
2017-12-13T15:34:13.913Z,99958.87
2017-12-13T15:36:42.234Z,99942.33
2017-12-13T15:39:11.389Z,99933.17
2017-12-13T15:41:39.714Z,99937.95
2017-12-13T15:44:08.183Z,99929.24
2017-12-13T15:46:36.528Z,99919.23
2017-12-13T15:49:04.910Z,99907.48
2017-12-13T15:51:33.294Z,99900.91
2017-12-13T15:54:03.365Z,99886.98
2017-12-13T15:56:31.722Z,99879.98
2017-12-13T15:59:01.420Z,99877.80
2017-12-13T16:01:31.170Z,99873.85
2017-12-13T16:03:59.487Z,99866.44
2017-12-13T16:06:27.854Z,99859.00
2017-12-13T16:08:57.564Z,99850.76
2017-12-13T16:11:26.321Z,99842.00
2017-12-13T16:13:54.689Z,99842.00
2017-12-13T16:16:23.410Z,99841.09
2017-12-13T16:18:51.761Z,99832.38
2017-12-13T16:21:21.109Z,99827.19
2017-12-13T16:23:49.537Z,99814.55
2017-12-13T16:26:17.889Z,99811.02
2017-12-13T16:28:46.633Z,99797.06
2017-12-13T16:31:14.983Z,99801.43
2017-12-13T16:33:44.145Z,99788.35
2017-12-13T16:36:12.510Z,99787.48
2017-12-13T16:38:42.001Z,99779.64
2017-12-13T16:41:10.333Z,99779.20
2017-12-13T16:43:40.061Z,99774.02
2017-12-13T16:46:08.757Z,99772.71
2017-12-13T16:48:38.339Z,99759.63
2017-12-13T16:51:07.297Z,99749.95
2017-12-13T16:53:36.389Z,99743.51
2017-12-13T16:56:06.538Z,99743.11
2017-12-13T16:58:35.634Z,99735.70
2017-12-13T17:01:04.801Z,99730.92
2017-12-13T17:03:33.750Z,99725.20
2017-12-13T17:06:02.076Z,99716.48
2017-12-13T17:08:31.954Z,99720.41
2017-12-13T17:11:00.286Z,99718.22
2017-12-13T17:13:29.417Z,99712.56
2017-12-13T17:15:57.749Z,99692.52
2017-12-13T17:18:26.901Z,99686.84
2017-12-13T17:20:55.241Z,99673.83
2017-12-13T17:23:24.024Z,99675.62
2017-12-13T17:25:52.768Z,99670.83
2017-12-13T17:28:21.110Z,99673.81
2017-12-13T17:30:49.489Z,99659.00
2017-12-13T17:33:17.833Z,99652.86
2017-12-13T17:35:47.001Z,99644.56
2017-12-13T17:38:15.417Z,99625.77
2017-12-13T17:40:43.750Z,99627.52
2017-12-13T17:43:12.517Z,99619.66
2017-12-13T17:45:42.627Z,99615.31
2017-12-13T17:48:12.096Z,99602.17
2017-12-13T17:50:42.524Z,99596.83
2017-12-13T17:53:12.452Z,99596.25
2017-12-13T17:55:41.976Z,99590.57
2017-12-13T17:58:11.016Z,99587.55
2017-12-13T18:00:39.392Z,99572.42
2017-12-13T18:03:08.156Z,99564.95
2017-12-13T18:05:37.252Z,99570.19
2017-12-13T18:08:05.971Z,99565.53
2017-12-13T18:10:35.108Z,99558.56
2017-12-13T18:13:03.900Z,99549.86
2017-12-13T18:15:32.226Z,99544.20
2017-12-13T18:18:01.395Z,99539.81
2017-12-13T18:20:29.748Z,99537.66
2017-12-13T18:22:58.137Z,99536.83
2017-12-13T18:25:27.253Z,99521.73
2017-12-13T18:27:55.944Z,99517.77
2017-12-13T18:30:24.324Z,99517.23
2017-12-13T18:32:52.648Z,99512.86
2017-12-13T18:35:21.012Z,99513.98
2017-12-13T18:37:50.883Z,99517.66
2017-12-13T18:40:20.020Z,99507.06
2017-12-13T18:42:49.891Z,99508.62
2017-12-13T18:45:18.263Z,99504.11
2017-12-13T18:47:47.873Z,99500.87
2017-12-13T18:50:16.244Z,99493.44
2017-12-13T18:52:44.739Z,99489.45
2017-12-13T18:55:15.160Z,99478.05
2017-12-13T18:57:44.054Z,99470.62
2017-12-13T19:00:25.768Z,99450.85
2017-12-13T19:02:54.132Z,99446.48
2017-12-13T19:05:23.822Z,99433.66
2017-12-13T19:07:54.891Z,99433.20
2017-12-13T19:10:23.635Z,99426.76
2017-12-13T19:12:53.576Z,99420.11
2017-12-13T19:15:22.807Z,99410.93
2017-12-13T19:17:51.607Z,99408.17
2017-12-13T19:20:21.667Z,99410.48
2017-12-13T19:22:50.573Z,99402.48
2017-12-13T19:25:18.960Z,99404.80
2017-12-13T19:27:48.981Z,99398.15
2017-12-13T19:30:17.863Z,99392.08
2017-12-13T19:32:46.377Z,99391.69
2017-12-13T19:35:14.717Z,99372.19
2017-12-13T19:37:44.155Z,99363.89
2017-12-13T19:40:14.831Z,99365.66
2017-12-13T19:42:43.943Z,99370.28
2017-12-13T19:45:13.580Z,99362.04
2017-12-13T19:47:43.919Z,99359.20
2017-12-13T19:50:13.063Z,99357.92
2017-12-13T19:52:41.423Z,99344.80
2017-12-13T19:55:10.831Z,99346.11
2017-12-13T19:57:40.855Z,99344.87
2017-12-13T20:00:10.096Z,99339.73
2017-12-13T20:02:39.888Z,99338.28
2017-12-13T20:05:09.094Z,99320.14
2017-12-13T20:07:37.522Z,99316.78
2017-12-13T20:10:06.290Z,99300.59
2017-12-13T20:12:36.126Z,99293.22
2017-12-13T20:15:18.286Z,99282.53
2017-12-13T20:17:47.860Z,99273.35
2017-12-13T20:20:16.392Z,99265.52
2017-12-13T20:22:45.221Z,99263.03
2017-12-13T20:25:14.381Z,99257.39
2017-12-13T20:27:44.386Z,99256.60
2017-12-13T20:30:13.485Z,99249.84
2017-12-13T20:32:43.154Z,99236.73
2017-12-13T20:35:12.840Z,99248.13
2017-12-13T20:37:41.889Z,99232.93
2017-12-13T20:40:10.288Z,99238.23
2017-12-13T20:42:39.299Z,99237.52
2017-12-13T20:45:07.646Z,99227.89
2017-12-13T20:47:37.701Z,99216.86
2017-12-13T20:50:08.314Z,99217.52
2017-12-13T20:52:36.867Z,99202.77
2017-12-13T20:55:07.506Z,99207.73
2017-12-13T20:57:37.377Z,99205.11
2017-12-13T21:00:08.234Z,99200.41
2017-12-13T21:02:38.110Z,99191.88
2017-12-13T21:05:07.877Z,99190.91
2017-12-13T21:07:38.342Z,99183.92
2017-12-13T21:10:09.993Z,99174.97
2017-12-13T21:12:38.773Z,99168.97
2017-12-13T21:15:07.856Z,99158.39
2017-12-13T21:17:37.429Z,99152.70
2017-12-13T21:20:07.817Z,99151.66
2017-12-13T21:22:40.326Z,99155.52
2017-12-13T21:25:11.311Z,99160.75
2017-12-13T21:27:40.805Z,99143.73
2017-12-13T21:30:09.196Z,99145.33
2017-12-13T21:32:38.096Z,99139.20
2017-12-13T21:35:06.509Z,99128.31
2017-12-13T21:37:34.913Z,99129.02
2017-12-13T21:40:04.093Z,99116.36
2017-12-13T21:42:33.339Z,99106.79
2017-12-13T21:45:03.209Z,99095.73
2017-12-13T21:47:33.657Z,99074.45
2017-12-13T21:50:02.097Z,99062.89
2017-12-13T21:52:31.317Z,99047.92
2017-12-13T21:54:59.761Z,99049.58
2017-12-13T21:57:29.050Z,99049.28
2017-12-13T21:59:57.486Z,99030.92
2017-12-13T22:02:27.118Z,99028.22
2017-12-13T22:04:55.499Z,99018.59
2017-12-13T22:07:26.114Z,99010.05
2017-12-13T22:09:54.694Z,98999.86
2017-12-13T22:12:23.107Z,98991.91
2017-12-13T22:14:51.553Z,98979.87
2017-12-13T22:17:19.957Z,98979.71
2017-12-13T22:19:48.353Z,98964.64
2017-12-13T22:22:18.217Z,98961.71
2017-12-13T22:24:47.434Z,98948.63
2017-12-13T22:27:16.299Z,98938.17
2017-12-13T22:29:45.418Z,98931.89
2017-12-13T22:32:15.790Z,98928.19
2017-12-13T22:34:45.290Z,98923.16
2017-12-13T22:37:14.145Z,98918.63
2017-12-13T22:39:43.947Z,98904.30
2017-12-13T22:42:13.425Z,98895.84
2017-12-13T22:44:42.547Z,98888.27
2017-12-13T22:47:10.934Z,98880.31
2017-12-13T22:49:39.285Z,98872.03
2017-12-13T22:52:08.010Z,98865.13
2017-12-13T22:54:37.883Z,98857.75
2017-12-13T22:57:06.981Z,98853.30
2017-12-13T22:59:36.102Z,98845.05
2017-12-13T23:02:05.777Z,98840.00
2017-12-13T23:04:35.514Z,98842.33
2017-12-13T23:07:04.235Z,98835.09
2017-12-13T23:09:32.587Z,98826.90
2017-12-13T23:12:01.711Z,98816.62
2017-12-13T23:14:30.053Z,98817.23
2017-12-13T23:16:59.274Z,98805.81
2017-12-13T23:19:28.041Z,98786.08
2017-12-13T23:21:56.366Z,98778.22
2017-12-13T23:24:24.749Z,98770.86
2017-12-13T23:26:53.973Z,98759.91
2017-12-13T23:29:22.736Z,98755.64
2017-12-13T23:31:52.584Z,98748.83
2017-12-13T23:34:20.927Z,98737.22
2017-12-13T23:36:50.061Z,98735.48
2017-12-13T23:39:18.425Z,98726.52
2017-12-13T23:41:47.667Z,98717.62
2017-12-13T23:44:15.984Z,98717.14
2017-12-13T23:46:45.137Z,98710.06
2017-12-13T23:49:13.484Z,98707.97
2017-12-13T23:51:42.241Z,98702.31
2017-12-13T23:54:10.605Z,98700.92
2017-12-13T23:56:38.942Z,98696.95
2017-12-13T23:59:08.034Z,98686.51
